Time;durP1;ratioP1;P1;durP2;ratioP2;P2;SDS_P1;SDS_P2;PMS_P1;PMS_P2;Temp;Humidity;BMP_temperature;BMP_pressure;BME280_temperature;BME280_humidity;BME280_pressure;Samples;Min_cycle;Max_cycle;Signal;HPM_P1;HPM_P2
2022/03/11 00:02:28;;;;;;;17.33;7.90;;;;;;;;;;5032774;28;20460;-63
2022/03/11 00:04:55;;;;;;;23.90;8.33;;;;;;;;;;5029195;28;20437;-63
2022/03/11 00:07:21;;;;;;;23.27;9.13;;;;;;;;;;5033468;28;20436;-63
2022/03/11 00:09:50;;;;;;;21.83;8.40;;;;;;;;;;5049223;28;20535;-63
2022/03/11 00:12:17;;;;;;;21.00;9.00;;;;;;;;;;5049066;28;20417;-62
2022/03/11 00:14:43;;;;;;;19.60;8.77;;;;;;;;;;5048918;28;20515;-63
2022/03/11 00:17:10;;;;;;;23.80;8.87;;;;;;;;;;5047360;28;20425;-63
2022/03/11 00:19:37;;;;;;;21.23;9.70;;;;;;;;;;5048762;28;20483;-63
2022/03/11 00:22:04;;;;;;;19.50;8.87;;;;;;;;;;5047065;28;20428;-63
2022/03/11 00:24:33;;;;;;;16.27;7.30;;;;;;;;;;5047923;28;20483;-63
2022/03/11 00:26:59;;;;;;;20.13;8.07;;;;;;;;;;5048964;28;21290;-63
2022/03/11 00:29:28;;;;;;;17.63;7.27;;;;;;;;;;5047348;28;20513;-63
2022/03/11 00:31:54;;;;;;;21.83;8.87;;;;;;;;;;5064151;28;20441;-63
2022/03/11 00:34:21;;;;;;;19.33;8.03;;;;;;;;;;5048244;28;20443;-63
2022/03/11 00:36:48;;;;;;;21.33;8.20;;;;;;;;;;5048474;28;20583;-63
2022/03/11 00:39:15;;;;;;;23.90;8.87;;;;;;;;;;5047558;28;20926;-63
2022/03/11 00:41:42;;;;;;;19.97;8.90;;;;;;;;;;5048180;28;20799;-63
2022/03/11 00:44:09;;;;;;;18.13;8.40;;;;;;;;;;5048527;28;20466;-63
2022/03/11 00:46:35;;;;;;;27.57;8.83;;;;;;;;;;5048293;28;20430;-63
2022/03/11 00:49:02;;;;;;;17.40;7.47;;;;;;;;;;5046583;28;20438;-63
2022/03/11 00:51:29;;;;;;;19.90;8.63;;;;;;;;;;5028385;28;20435;-63
2022/03/11 00:53:55;;;;;;;20.63;8.00;;;;;;;;;;5027707;28;20528;-63
2022/03/11 00:56:23;;;;;;;21.07;7.97;;;;;;;;;;5028288;28;20424;-63
2022/03/11 00:58:50;;;;;;;22.73;8.23;;;;;;;;;;5028427;28;20469;-63
2022/03/11 01:01:16;;;;;;;18.33;7.23;;;;;;;;;;5028345;28;20763;-63
2022/03/11 01:03:43;;;;;;;19.70;7.83;;;;;;;;;;5028235;28;20824;-63
2022/03/11 01:41:37;;;;;;;16.43;6.23;;;;;;;;;;5051627;28;20470;-63
2022/03/11 01:44:04;;;;;;;17.13;7.17;;;;;;;;;;5051529;28;20431;-63
2022/03/11 01:46:31;;;;;;;17.17;7.40;;;;;;;;;;5051545;28;20471;-63
2022/03/11 01:48:58;;;;;;;18.03;7.20;;;;;;;;;;5051654;28;20529;-63
2022/03/11 01:51:27;;;;;;;18.90;7.10;;;;;;;;;;5051261;28;20433;-63
2022/03/11 01:53:54;;;;;;;15.20;6.97;;;;;;;;;;5052267;28;20983;-63
2022/03/11 01:56:21;;;;;;;15.23;6.57;;;;;;;;;;5051420;28;20447;-64
2022/03/11 01:58:49;;;;;;;18.63;6.73;;;;;;;;;;5050217;28;21009;-63
2022/03/11 02:01:16;;;;;;;17.83;7.50;;;;;;;;;;5051315;28;20436;-63
2022/03/11 02:03:43;;;;;;;17.43;7.03;;;;;;;;;;5049894;28;20482;-63
2022/03/11 02:06:10;;;;;;;14.73;6.23;;;;;;;;;;5051597;28;20438;-63
2022/03/11 02:08:37;;;;;;;16.33;6.73;;;;;;;;;;5033717;28;20423;-64
2022/03/11 02:11:04;;;;;;;15.10;6.57;;;;;;;;;;5029918;28;20461;-63
2022/03/11 02:13:46;;;;;;;14.83;6.60;;;;;;;;;;5031335;28;20423;-63
2022/03/11 02:16:23;;;;;;;14.33;6.27;;;;;;;;;;5030968;28;20440;-63
2022/03/11 02:18:51;;;;;;;17.50;6.90;;;;;;;;;;5031150;28;20997;-63
2022/03/11 02:21:18;;;;;;;15.63;7.33;;;;;;;;;;5031383;28;20430;-63
2022/03/11 02:23:45;;;;;;;14.00;6.67;;;;;;;;;;5031053;28;20448;-63
2022/03/11 02:26:15;;;;;;;16.77;7.10;;;;;;;;;;5031223;28;20426;-63
2022/03/11 02:28:43;;;;;;;20.73;7.33;;;;;;;;;;5032158;28;20984;-63
2022/03/11 02:31:10;;;;;;;15.70;7.00;;;;;;;;;;5050693;28;20964;-63
2022/03/11 02:33:37;;;;;;;18.60;7.27;;;;;;;;;;5050680;28;20441;-63
2022/03/11 02:36:04;;;;;;;17.73;6.50;;;;;;;;;;5050890;28;20519;-63
2022/03/11 02:38:31;;;;;;;15.40;7.13;;;;;;;;;;5050617;28;20956;-63
2022/03/11 02:40:58;;;;;;;18.53;7.10;;;;;;;;;;5050428;28;20869;-64
2022/03/11 02:43:24;;;;;;;19.43;6.90;;;;;;;;;;5050239;28;20442;-64
2022/03/11 02:45:51;;;;;;;15.93;6.73;;;;;;;;;;5049961;28;20437;-64
2022/03/11 02:48:18;;;;;;;17.57;7.37;;;;;;;;;;5050512;28;20430;-63
2022/03/11 02:50:45;;;;;;;15.13;7.20;;;;;;;;;;5050799;28;20961;-63
2022/03/11 02:53:12;;;;;;;15.73;6.43;;;;;;;;;;5050426;28;20442;-63
2022/03/11 02:55:39;;;;;;;18.07;7.53;;;;;;;;;;5049298;28;20525;-63
2022/03/11 02:58:05;;;;;;;14.10;6.50;;;;;;;;;;5050085;28;20526;-64
2022/03/11 03:00:33;;;;;;;19.80;7.83;;;;;;;;;;5050251;28;20483;-63
2022/03/11 03:03:00;;;;;;;14.93;6.63;;;;;;;;;;5048914;28;20446;-63
2022/03/11 03:05:27;;;;;;;23.20;8.23;;;;;;;;;;5050418;28;20439;-63
2022/03/11 03:07:55;;;;;;;21.20;8.07;;;;;;;;;;5044440;28;20471;-63
2022/03/11 03:10:22;;;;;;;15.33;6.77;;;;;;;;;;5030084;28;20438;-63
2022/03/11 03:12:49;;;;;;;14.77;6.77;;;;;;;;;;5030008;28;20430;-63
2022/03/11 03:15:15;;;;;;;18.07;7.80;;;;;;;;;;5030548;28;20422;-63
2022/03/11 03:17:42;;;;;;;19.23;7.60;;;;;;;;;;5029974;28;20516;-63
2022/03/11 03:20:09;;;;;;;25.33;7.97;;;;;;;;;;5030046;28;20472;-63
2022/03/11 03:22:36;;;;;;;20.77;7.53;;;;;;;;;;5030025;28;20430;-63
2022/03/11 03:25:03;;;;;;;17.70;7.33;;;;;;;;;;5029674;28;20427;-64
2022/03/11 03:27:29;;;;;;;17.70;7.88;;;;;;;;;;5029740;28;20464;-62
2022/03/11 03:29:56;;;;;;;17.83;7.23;;;;;;;;;;5029625;28;20554;-63
2022/03/11 03:32:23;;;;;;;18.27;7.30;;;;;;;;;;5029306;28;20520;-63
2022/03/11 03:34:49;;;;;;;19.90;7.50;;;;;;;;;;5029888;28;20794;-63
2022/03/11 03:37:16;;;;;;;18.43;6.97;;;;;;;;;;5029746;28;21003;-63
2022/03/11 03:39:44;;;;;;;18.63;7.13;;;;;;;;;;5035116;28;20486;-63
2022/03/11 03:42:11;;;;;;;17.77;7.40;;;;;;;;;;5030042;28;20462;-63
2022/03/11 03:44:37;;;;;;;21.67;7.87;;;;;;;;;;5028394;28;20446;-63
2022/03/11 03:47:04;;;;;;;23.50;9.10;;;;;;;;;;5029253;28;20440;-63
2022/03/11 03:49:31;;;;;;;24.03;8.90;;;;;;;;;;5029627;28;20849;-63
2022/03/11 03:51:58;;;;;;;19.27;8.20;;;;;;;;;;5029512;28;20440;-63
2022/03/11 03:54:31;;;;;;;25.77;9.07;;;;;;;;;;5038971;28;20476;-63
2022/03/11 03:56:57;;;;;;;16.23;7.30;;;;;;;;;;5049590;28;20418;-63
2022/03/11 03:59:24;;;;;;;21.17;8.00;;;;;;;;;;5048518;28;20996;-63
2022/03/11 04:01:51;;;;;;;17.70;7.70;;;;;;;;;;5049076;28;20520;-63
2022/03/11 04:04:18;;;;;;;19.20;7.80;;;;;;;;;;5049183;28;20426;-63
2022/03/11 04:06:44;;;;;;;19.27;7.33;;;;;;;;;;5047844;28;20435;-63
2022/03/11 04:09:12;;;;;;;18.17;7.10;;;;;;;;;;5029326;28;20783;-63
2022/03/11 04:11:40;;;;;;;20.97;6.90;;;;;;;;;;5029058;28;20453;-63
2022/03/11 04:14:07;;;;;;;18.93;7.40;;;;;;;;;;5040018;28;20487;-62
2022/03/11 04:16:34;;;;;;;16.90;7.47;;;;;;;;;;5042197;28;20426;-62
2022/03/11 04:19:01;;;;;;;16.37;7.23;;;;;;;;;;5042683;28;20438;-63
2022/03/11 04:21:27;;;;;;;18.30;7.80;;;;;;;;;;5042369;28;20522;-63
2022/03/11 04:23:55;;;;;;;21.23;8.03;;;;;;;;;;5042484;28;20430;-63
2022/03/11 04:26:22;;;;;;;17.60;7.67;;;;;;;;;;5042788;28;20527;-63
2022/03/11 04:28:49;;;;;;;18.40;6.67;;;;;;;;;;5041363;28;20441;-63
2022/03/11 04:31:16;;;;;;;17.13;7.20;;;;;;;;;;5043041;28;20446;-62
2022/03/11 04:33:42;;;;;;;18.87;7.23;;;;;;;;;;5042518;28;20949;-63
2022/03/11 04:36:09;;;;;;;16.57;6.30;;;;;;;;;;5042590;28;20942;-63
2022/03/11 04:38:36;;;;;;;16.37;7.03;;;;;;;;;;5041104;28;20449;-63
2022/03/11 04:41:03;;;;;;;16.47;6.80;;;;;;;;;;5042142;28;20484;-62
2022/03/11 04:43:30;;;;;;;17.73;7.93;;;;;;;;;;5042345;28;21362;-63
2022/03/11 04:45:57;;;;;;;24.90;8.40;;;;;;;;;;5043020;28;20916;-63
2022/03/11 04:48:25;;;;;;;24.23;8.57;;;;;;;;;;5042601;28;20524;-63
2022/03/11 04:50:52;;;;;;;23.30;8.07;;;;;;;;;;5043295;28;20434;-63
2022/03/11 04:53:18;;;;;;;26.60;8.73;;;;;;;;;;5042566;28;20429;-63
2022/03/11 04:55:45;;;;;;;22.20;8.17;;;;;;;;;;5042130;28;20443;-63
2022/03/11 04:58:12;;;;;;;19.03;8.03;;;;;;;;;;5042733;28;20430;-63
2022/03/11 05:00:39;;;;;;;24.33;8.10;;;;;;;;;;5041949;28;20468;-63
2022/03/11 05:03:05;;;;;;;24.17;9.73;;;;;;;;;;5042029;28;20527;-63
2022/03/11 05:05:32;;;;;;;33.10;11.47;;;;;;;;;;5043472;28;20453;-63
2022/03/11 05:08:00;;;;;;;39.13;13.83;;;;;;;;;;5041334;28;20557;-63
2022/03/11 05:10:28;;;;;;;45.73;14.40;;;;;;;;;;5041866;28;20437;-63
2022/03/11 05:12:54;;;;;;;44.37;15.87;;;;;;;;;;5045225;28;20433;-63
2022/03/11 05:15:24;;;;;;;40.67;12.30;;;;;;;;;;5045400;28;21238;-64
2022/03/11 05:17:51;;;;;;;24.00;10.43;;;;;;;;;;5046052;28;20446;-63
2022/03/11 05:20:18;;;;;;;18.03;7.67;;;;;;;;;;5044252;28;20593;-63
2022/03/11 05:22:45;;;;;;;16.60;7.33;;;;;;;;;;5045407;28;20443;-63
2022/03/11 05:25:12;;;;;;;14.57;6.30;;;;;;;;;;5045518;28;20529;-64
2022/03/11 05:27:39;;;;;;;15.70;6.53;;;;;;;;;;5046511;28;20842;-61
2022/03/11 05:30:06;;;;;;;13.83;7.03;;;;;;;;;;5045650;28;21033;-62
2022/03/11 05:32:32;;;;;;;18.87;6.73;;;;;;;;;;5046245;28;20526;-64
2022/03/11 05:34:59;;;;;;;15.30;6.07;;;;;;;;;;5045978;28;20560;-63
2022/03/11 05:37:26;;;;;;;16.20;6.83;;;;;;;;;;5044886;28;20955;-62
2022/03/11 05:39:52;;;;;;;18.70;7.97;;;;;;;;;;5045482;28;20907;-63
2022/03/11 05:42:19;;;;;;;16.33;7.37;;;;;;;;;;5046299;28;21034;-64
2022/03/11 05:44:46;;;;;;;17.13;7.60;;;;;;;;;;5045498;28;20452;-63
2022/03/11 05:47:13;;;;;;;14.50;6.43;;;;;;;;;;5046186;28;20439;-62
2022/03/11 05:49:40;;;;;;;19.20;6.40;;;;;;;;;;5044828;28;20435;-63
2022/03/11 05:52:07;;;;;;;22.43;6.23;;;;;;;;;;5047323;28;20456;-63
2022/03/11 05:54:34;;;;;;;10.77;5.17;;;;;;;;;;5038932;28;20435;-63
2022/03/11 05:57:02;;;;;;;18.93;6.53;;;;;;;;;;5049927;28;20786;-63
2022/03/11 05:59:29;;;;;;;17.83;6.07;;;;;;;;;;5032117;28;20450;-63
2022/03/11 06:01:56;;;;;;;17.43;6.20;;;;;;;;;;5033813;28;20504;-63
2022/03/11 06:04:22;;;;;;;15.53;6.37;;;;;;;;;;5031923;28;20444;-63
2022/03/11 06:06:49;;;;;;;15.57;7.03;;;;;;;;;;5032795;28;20476;-63
2022/03/11 06:09:16;;;;;;;17.87;6.67;;;;;;;;;;5041730;28;20447;-63
2022/03/11 06:11:42;;;;;;;14.83;6.43;;;;;;;;;;5040166;28;20875;-63
2022/03/11 06:14:09;;;;;;;14.67;6.10;;;;;;;;;;5040274;28;20441;-63
2022/03/11 06:16:36;;;;;;;19.23;7.47;;;;;;;;;;5050859;28;20936;-63
2022/03/11 06:19:03;;;;;;;17.17;6.57;;;;;;;;;;5040165;28;20442;-63
2022/03/11 06:21:30;;;;;;;15.00;6.73;;;;;;;;;;5044990;28;20472;-63
2022/03/11 06:23:57;;;;;;;14.50;6.70;;;;;;;;;;5054330;28;20465;-63
2022/03/11 06:26:24;;;;;;;16.53;7.10;;;;;;;;;;5051615;28;20432;-62
2022/03/11 06:28:51;;;;;;;19.17;8.20;;;;;;;;;;5040847;28;20449;-63
2022/03/11 06:31:18;;;;;;;20.50;7.90;;;;;;;;;;5045173;28;20449;-62
2022/03/11 06:33:44;;;;;;;20.17;8.53;;;;;;;;;;5037546;28;20547;-63
2022/03/11 06:36:11;;;;;;;21.77;7.87;;;;;;;;;;5030671;28;20447;-63
2022/03/11 06:38:38;;;;;;;15.60;6.40;;;;;;;;;;5030664;28;21047;-62
2022/03/11 06:41:06;;;;;;;13.40;6.37;;;;;;;;;;5029152;28;20488;-63
2022/03/11 06:43:33;;;;;;;14.93;6.87;;;;;;;;;;5029727;28;20430;-63
2022/03/11 06:46:00;;;;;;;13.67;6.60;;;;;;;;;;5029359;28;20469;-63
2022/03/11 06:48:27;;;;;;;15.40;6.57;;;;;;;;;;5028229;28;20423;-63
2022/03/11 06:50:53;;;;;;;14.47;6.30;;;;;;;;;;5029792;28;20445;-63
2022/03/11 06:53:25;;;;;;;13.73;6.20;;;;;;;;;;5029415;28;20977;-62
2022/03/11 06:55:53;;;;;;;15.67;6.17;;;;;;;;;;5029237;28;20438;-64
2022/03/11 06:58:20;;;;;;;11.17;5.80;;;;;;;;;;5028114;28;20481;-62
2022/03/11 07:00:46;;;;;;;15.57;6.87;;;;;;;;;;5029053;28;20477;-62
2022/03/11 07:03:13;;;;;;;13.37;6.07;;;;;;;;;;5029818;28;20431;-62
2022/03/11 07:05:40;;;;;;;10.80;4.30;;;;;;;;;;5028759;28;20449;-63
2022/03/11 07:08:10;;;;;;;12.83;5.73;;;;;;;;;;5041126;28;20517;-61
2022/03/11 07:10:36;;;;;;;15.10;5.67;;;;;;;;;;5042748;28;20481;-61
2022/03/11 07:13:03;;;;;;;14.47;6.10;;;;;;;;;;5027936;28;20837;-62
2022/03/11 07:15:30;;;;;;;11.67;6.20;;;;;;;;;;5028908;28;20431;-62
2022/03/11 07:17:57;;;;;;;15.73;7.23;;;;;;;;;;5029635;28;20423;-62
2022/03/11 07:20:24;;;;;;;12.33;6.20;;;;;;;;;;5027568;28;20511;-62
2022/03/11 07:23:10;;;;;;;15.30;6.57;;;;;;;;;;5029205;28;20520;-62
2022/03/11 07:25:37;;;;;;;12.87;6.87;;;;;;;;;;5028940;28;20462;-62
2022/03/11 07:28:04;;;;;;;14.83;6.73;;;;;;;;;;5028769;28;20433;-62
2022/03/11 07:30:30;;;;;;;14.47;6.73;;;;;;;;;;5044256;28;20431;-62
2022/03/11 07:32:57;;;;;;;17.27;7.40;;;;;;;;;;5028839;28;20439;-62
2022/03/11 07:35:24;;;;;;;12.03;5.93;;;;;;;;;;5028089;28;20429;-62
2022/03/11 07:37:51;;;;;;;17.57;6.60;;;;;;;;;;5028946;28;20488;-62
2022/03/11 07:40:18;;;;;;;17.03;7.43;;;;;;;;;;4984409;28;1276967;-63
2022/03/11 07:42:44;;;;;;;16.63;7.13;;;;;;;;;;5029522;28;20283;-62
2022/03/11 07:45:15;;;;;;;12.90;6.73;;;;;;;;;;5029815;28;20437;-62
2022/03/11 07:47:42;;;;;;;11.33;4.57;;;;;;;;;;5027861;28;20448;-63
2022/03/11 07:50:09;;;;;;;5.90;3.20;;;;;;;;;;5030481;28;20429;-63
2022/03/11 07:52:37;;;;;;;5.63;3.40;;;;;;;;;;5039704;28;20437;-62
2022/03/11 07:55:05;;;;;;;4.63;2.33;;;;;;;;;;5037902;28;21007;-63
2022/03/11 07:57:32;;;;;;;5.50;3.00;;;;;;;;;;5042076;28;20439;-63
2022/03/11 08:00:00;;;;;;;5.37;3.13;;;;;;;;;;5036245;28;20441;-64
2022/03/11 08:02:30;;;;;;;5.93;3.20;;;;;;;;;;5041043;28;20796;-64
2022/03/11 08:04:58;;;;;;;6.73;2.77;;;;;;;;;;5040326;28;20437;-64
2022/03/11 08:07:25;;;;;;;8.33;3.43;;;;;;;;;;5041684;28;21011;-64
2022/03/11 08:09:52;;;;;;;5.40;2.67;;;;;;;;;;5042063;28;20507;-64
2022/03/11 08:12:19;;;;;;;7.10;4.00;;;;;;;;;;5043514;28;20487;-64
2022/03/11 08:14:47;;;;;;;8.60;2.37;;;;;;;;;;5043758;28;20514;-64
2022/03/11 08:17:14;;;;;;;6.57;4.00;;;;;;;;;;5043597;28;20978;-63
2022/03/11 08:19:41;;;;;;;7.43;2.20;;;;;;;;;;5042991;28;20447;-63
2022/03/11 08:22:08;;;;;;;4.50;1.83;;;;;;;;;;5043523;28;20481;-64
2022/03/11 08:24:35;;;;;;;8.10;3.57;;;;;;;;;;5043194;28;20503;-63
2022/03/11 08:27:02;;;;;;;7.10;3.17;;;;;;;;;;5046134;28;20499;-63
2022/03/11 08:29:32;;;;;;;7.97;2.97;;;;;;;;;;5042041;28;20475;-63
2022/03/11 08:32:00;;;;;;;6.60;2.63;;;;;;;;;;5040183;28;21225;-63
2022/03/11 08:34:28;;;;;;;5.30;2.70;;;;;;;;;;5041834;28;21401;-63
2022/03/11 08:37:15;;;;;;;9.43;3.00;;;;;;;;;;5041564;28;20434;-63
2022/03/11 08:39:41;;;;;;;6.37;3.33;;;;;;;;;;5044680;28;20479;-64
2022/03/11 08:42:08;;;;;;;6.83;3.33;;;;;;;;;;5049120;28;20460;-63
2022/03/11 08:44:35;;;;;;;7.23;3.10;;;;;;;;;;5043247;28;20429;-63
2022/03/11 08:47:02;;;;;;;5.93;3.37;;;;;;;;;;5041353;28;20457;-63
2022/03/11 08:49:29;;;;;;;7.33;3.73;;;;;;;;;;5046498;28;20437;-63
2022/03/11 08:51:56;;;;;;;6.30;2.60;;;;;;;;;;5046795;28;20445;-62
2022/03/11 08:54:23;;;;;;;4.63;1.53;;;;;;;;;;5041231;28;20433;-62
2022/03/11 08:56:52;;;;;;;5.50;2.43;;;;;;;;;;5036583;28;20848;-63
2022/03/11 08:59:19;;;;;;;6.20;2.30;;;;;;;;;;5027262;28;20819;-62
2022/03/11 09:01:47;;;;;;;7.17;3.00;;;;;;;;;;5042519;28;20605;-63
2022/03/11 09:04:14;;;;;;;6.57;3.10;;;;;;;;;;5043532;28;20457;-63
2022/03/11 09:06:41;;;;;;;5.73;3.40;;;;;;;;;;5043330;28;20516;-62
2022/03/11 09:09:10;;;;;;;9.43;3.50;;;;;;;;;;5043945;28;20483;-62
2022/03/11 09:11:37;;;;;;;6.80;3.33;;;;;;;;;;5043187;28;20494;-62
2022/03/11 09:14:04;;;;;;;7.80;2.87;;;;;;;;;;5042041;28;20270;-63
2022/03/11 09:16:31;;;;;;;7.63;3.87;;;;;;;;;;5042411;28;20484;-63
2022/03/11 09:18:59;;;;;;;4.90;3.27;;;;;;;;;;5042517;28;20960;-63
2022/03/11 09:21:28;;;;;;;6.47;3.13;;;;;;;;;;5041343;28;20289;-63
2022/03/11 09:23:56;;;;;;;8.67;3.63;;;;;;;;;;5041454;28;20759;-63
2022/03/11 09:26:23;;;;;;;8.00;3.93;;;;;;;;;;5041662;28;20274;-64
2022/03/11 09:29:10;;;;;;;8.83;3.97;;;;;;;;;;5041813;28;20676;-63
2022/03/11 09:31:37;;;;;;;5.23;3.07;;;;;;;;;;5041152;28;20536;-63
2022/03/11 09:34:07;;;;;;;5.70;3.57;;;;;;;;;;5039963;28;20881;-65
2022/03/11 09:36:33;;;;;;;5.20;3.00;;;;;;;;;;5041387;28;20187;-64
2022/03/11 09:39:00;;;;;;;6.03;3.70;;;;;;;;;;5040809;28;20186;-64
2022/03/11 09:41:27;;;;;;;6.87;3.50;;;;;;;;;;5041222;28;20266;-65
2022/03/11 09:43:54;;;;;;;5.83;3.70;;;;;;;;;;5040731;28;20214;-65
2022/03/11 09:46:21;;;;;;;6.43;3.73;;;;;;;;;;5041713;28;20202;-66
2022/03/11 09:48:48;;;;;;;8.27;3.47;;;;;;;;;;5041227;28;20198;-63
2022/03/11 09:51:16;;;;;;;5.37;3.33;;;;;;;;;;5041565;28;20674;-64
2022/03/11 09:53:44;;;;;;;8.57;4.10;;;;;;;;;;5041060;28;20195;-65
2022/03/11 09:56:11;;;;;;;7.77;4.47;;;;;;;;;;5040492;28;20930;-64
2022/03/11 09:58:38;;;;;;;9.50;3.97;;;;;;;;;;5045709;28;20194;-65
2022/03/11 10:01:05;;;;;;;7.53;3.90;;;;;;;;;;5044906;28;20206;-64
2022/03/11 10:03:33;;;;;;;7.40;4.13;;;;;;;;;;5046129;28;20764;-64
2022/03/11 10:06:00;;;;;;;8.07;4.37;;;;;;;;;;5045641;28;20233;-64
2022/03/11 10:08:37;;;;;;;6.60;3.90;;;;;;;;;;5045610;28;20190;-65
2022/03/11 10:11:22;;;;;;;6.87;3.87;;;;;;;;;;5044317;28;20326;-66
2022/03/11 10:13:53;;;;;;;7.60;3.60;;;;;;;;;;5044260;28;20274;-67
2022/03/11 10:16:26;;;;;;;7.23;3.90;;;;;;;;;;5045334;28;20218;-66
2022/03/11 10:18:55;;;;;;;8.13;3.80;;;;;;;;;;5045182;28;20211;-65
2022/03/11 10:21:28;;;;;;;8.50;4.07;;;;;;;;;;5044589;28;20203;-65
2022/03/11 10:23:55;;;;;;;9.70;3.77;;;;;;;;;;5044952;28;20195;-66
2022/03/11 10:26:31;;;;;;;6.87;3.13;;;;;;;;;;5044970;28;20191;-67
2022/03/11 10:28:58;;;;;;;7.13;3.80;;;;;;;;;;5044557;28;20198;-66
2022/03/11 10:31:29;;;;;;;7.33;4.00;;;;;;;;;;5043991;28;20195;-67
2022/03/11 10:34:12;;;;;;;5.97;3.57;;;;;;;;;;5044610;28;20568;-67
2022/03/11 10:36:46;;;;;;;7.07;3.40;;;;;;;;;;5045190;28;20198;-64
2022/03/11 10:39:17;;;;;;;10.93;4.40;;;;;;;;;;5044085;28;20204;-64
2022/03/11 10:41:45;;;;;;;6.70;3.27;;;;;;;;;;5042352;28;20889;-64
2022/03/11 10:44:12;;;;;;;8.53;3.47;;;;;;;;;;5043715;28;20780;-67
2022/03/11 10:46:39;;;;;;;6.90;3.77;;;;;;;;;;5043237;28;20896;-64
2022/03/11 10:49:06;;;;;;;8.83;4.07;;;;;;;;;;5044300;28;20190;-64
2022/03/11 10:51:34;;;;;;;9.63;4.13;;;;;;;;;;5043978;28;20191;-65
2022/03/11 10:54:01;;;;;;;6.97;3.60;;;;;;;;;;5044937;28;20191;-66
2022/03/11 10:56:35;;;;;;;7.53;3.97;;;;;;;;;;5045013;28;20653;-65
2022/03/11 10:59:05;;;;;;;6.97;3.80;;;;;;;;;;5044146;28;20195;-64
2022/03/11 11:01:35;;;;;;;7.33;3.57;;;;;;;;;;5044047;28;20207;-65
2022/03/11 11:04:03;;;;;;;6.90;3.97;;;;;;;;;;5043525;28;20195;-63
2022/03/11 11:06:30;;;;;;;6.67;3.73;;;;;;;;;;5041771;28;20718;-64
2022/03/11 11:09:02;;;;;;;6.20;3.23;;;;;;;;;;5039381;28;20195;-64
2022/03/11 11:11:30;;;;;;;10.70;3.87;;;;;;;;;;5043416;28;20757;-64
2022/03/11 11:13:57;;;;;;;6.33;3.20;;;;;;;;;;5044047;28;20199;-65
2022/03/11 11:16:24;;;;;;;5.07;3.17;;;;;;;;;;5042260;28;20241;-64
2022/03/11 11:18:52;;;;;;;4.70;2.63;;;;;;;;;;5041442;28;20210;-64
2022/03/11 11:21:20;;;;;;;7.37;2.73;;;;;;;;;;5043599;28;20250;-64
2022/03/11 11:23:47;;;;;;;6.40;3.30;;;;;;;;;;5044222;28;20191;-63
2022/03/11 11:26:14;;;;;;;4.47;3.00;;;;;;;;;;5043829;28;20203;-64
2022/03/11 11:28:41;;;;;;;6.50;2.97;;;;;;;;;;5042522;28;20214;-65
2022/03/11 11:31:07;;;;;;;6.07;3.50;;;;;;;;;;5042044;28;20229;-64
2022/03/11 11:33:43;;;;;;;5.97;3.20;;;;;;;;;;5044061;28;20285;-64
2022/03/11 11:36:10;;;;;;;6.27;3.20;;;;;;;;;;5043042;28;20260;-64
2022/03/11 11:38:38;;;;;;;8.20;3.50;;;;;;;;;;5043855;28;20191;-64
2022/03/11 11:41:26;;;;;;;5.53;3.10;;;;;;;;;;5042745;28;20288;-64
2022/03/11 11:43:57;;;;;;;5.50;3.00;;;;;;;;;;5043655;28;20256;-64
2022/03/11 11:46:24;;;;;;;4.90;2.00;;;;;;;;;;5043086;28;20195;-64
2022/03/11 11:48:51;;;;;;;6.20;3.07;;;;;;;;;;5043371;28;20191;-64
2022/03/11 11:51:21;;;;;;;6.00;3.60;;;;;;;;;;5042128;28;20191;-67
2022/03/11 11:53:55;;;;;;;6.77;3.70;;;;;;;;;;5041875;28;20750;-64
2022/03/11 11:56:31;;;;;;;8.67;4.23;;;;;;;;;;5041023;28;20187;-63
2022/03/11 11:59:16;;;;;;;7.70;3.70;;;;;;;;;;5041110;28;20197;-65
2022/03/11 12:01:46;;;;;;;7.83;4.13;;;;;;;;;;5039762;28;20220;-66
2022/03/11 12:04:16;;;;;;;9.07;4.00;;;;;;;;;;5042826;28;20194;-65
2022/03/11 12:07:02;;;;;;;7.33;3.80;;;;;;;;;;5042310;28;20206;-64
2022/03/11 12:09:38;;;;;;;7.83;3.93;;;;;;;;;;5040439;28;20286;-64
2022/03/11 12:12:30;;;;;;;9.77;3.73;;;;;;;;;;5042231;28;20194;-64
2022/03/11 12:15:01;;;;;;;6.97;4.40;;;;;;;;;;5043425;28;20198;-64
2022/03/11 12:17:41;;;;;;;7.83;4.23;;;;;;;;;;5043493;28;20197;-64
2022/03/11 12:20:26;;;;;;;7.03;4.00;;;;;;;;;;5041676;28;20191;-65
2022/03/11 12:23:00;;;;;;;10.37;4.50;;;;;;;;;;5042217;28;20218;-64
2022/03/11 12:25:28;;;;;;;6.53;3.83;;;;;;;;;;5041297;28;20214;-65
2022/03/11 12:27:57;;;;;;;7.83;4.00;;;;;;;;;;5042890;28;20194;-64
2022/03/11 12:30:23;;;;;;;7.40;3.60;;;;;;;;;;5041797;28;20195;-66
2022/03/11 12:32:50;;;;;;;7.23;3.83;;;;;;;;;;5041914;28;20191;-66
2022/03/11 12:35:18;;;;;;;6.80;3.70;;;;;;;;;;5041429;28;20206;-67
2022/03/11 12:37:47;;;;;;;7.33;4.03;;;;;;;;;;5042682;28;20191;-66
2022/03/11 12:40:14;;;;;;;5.90;3.90;;;;;;;;;;5040857;28;20296;-66
2022/03/11 12:42:41;;;;;;;5.93;3.77;;;;;;;;;;5041943;28;20325;-66
2022/03/11 12:45:08;;;;;;;6.50;3.60;;;;;;;;;;5040157;28;20933;-64
2022/03/11 12:47:39;;;;;;;9.10;4.40;;;;;;;;;;5041567;28;20792;-65
2022/03/11 12:50:07;;;;;;;6.30;4.00;;;;;;;;;;5039955;28;20266;-66
2022/03/11 12:52:35;;;;;;;7.90;4.20;;;;;;;;;;5040775;28;20187;-65
2022/03/11 12:55:02;;;;;;;8.87;3.80;;;;;;;;;;5041644;28;20197;-65
2022/03/11 12:57:29;;;;;;;9.23;4.27;;;;;;;;;;5043023;28;20191;-64
2022/03/11 12:59:56;;;;;;;6.37;3.37;;;;;;;;;;5042595;28;20198;-65
2022/03/11 13:02:23;;;;;;;5.73;3.47;;;;;;;;;;5022746;28;20214;-67
2022/03/11 13:04:51;;;;;;;6.37;3.50;;;;;;;;;;5041578;28;20204;-68
2022/03/11 13:07:29;;;;;;;7.23;3.30;;;;;;;;;;5041176;28;20194;-70
2022/03/11 13:10:12;;;;;;;7.83;3.73;;;;;;;;;;5042123;28;20195;-70
2022/03/11 13:12:40;;;;;;;9.80;4.30;;;;;;;;;;5042635;28;20260;-66
2022/03/11 13:15:16;;;;;;;7.23;3.67;;;;;;;;;;5043097;28;20198;-67
2022/03/11 13:17:43;;;;;;;7.40;3.73;;;;;;;;;;5037966;28;20209;-68
2022/03/11 13:20:30;;;;;;;7.43;3.60;;;;;;;;;;5041272;28;20191;-68
2022/03/11 13:22:58;;;;;;;6.53;3.70;;;;;;;;;;5040877;28;20268;-68
2022/03/11 13:25:28;;;;;;;8.63;3.77;;;;;;;;;;5040261;28;20277;-66
2022/03/11 13:27:57;;;;;;;6.80;3.57;;;;;;;;;;5040990;28;20780;-66
2022/03/11 13:30:30;;;;;;;8.23;4.03;;;;;;;;;;5040053;28;20248;-67
2022/03/11 13:32:57;;;;;;;7.83;4.10;;;;;;;;;;5042580;28;20194;-68
2022/03/11 13:35:30;;;;;;;6.23;3.80;;;;;;;;;;5043784;28;20202;-66
2022/03/11 13:37:58;;;;;;;7.53;3.80;;;;;;;;;;5026686;28;20217;-66
2022/03/11 13:40:37;;;;;;;6.50;3.47;;;;;;;;;;5045302;28;20305;-66
2022/03/11 13:43:04;;;;;;;7.60;3.60;;;;;;;;;;5040554;28;20230;-67
2022/03/11 13:45:32;;;;;;;8.93;4.13;;;;;;;;;;5042712;28;20197;-67
2022/03/11 13:48:09;;;;;;;8.63;3.63;;;;;;;;;;5044328;28;20265;-67
2022/03/11 13:50:36;;;;;;;6.10;3.60;;;;;;;;;;5027399;28;20217;-66
2022/03/11 13:53:04;;;;;;;6.63;3.60;;;;;;;;;;5026752;28;20199;-66
2022/03/11 13:55:35;;;;;;;7.63;3.67;;;;;;;;;;5045234;28;20198;-67
2022/03/11 13:58:12;;;;;;;8.07;3.97;;;;;;;;;;5043957;28;20602;-67
2022/03/11 14:00:40;;;;;;;8.13;3.87;;;;;;;;;;5043943;28;20218;-67
2022/03/11 14:03:13;;;;;;;8.60;3.30;;;;;;;;;;5044520;28;20686;-68
2022/03/11 14:05:42;;;;;;;8.80;4.07;;;;;;;;;;5044260;28;20218;-67
2022/03/11 14:08:09;;;;;;;8.00;4.00;;;;;;;;;;5044763;28;20278;-67
2022/03/11 14:10:36;;;;;;;9.73;3.70;;;;;;;;;;5044723;28;20705;-68
2022/03/11 14:13:07;;;;;;;8.80;4.17;;;;;;;;;;5045463;28;20219;-68
2022/03/11 14:15:34;;;;;;;9.53;4.13;;;;;;;;;;5044747;28;20201;-67
2022/03/11 14:18:02;;;;;;;4.43;2.80;;;;;;;;;;5045901;28;21034;-67
2022/03/11 14:20:52;;;;;;;8.07;3.40;;;;;;;;;;5045755;28;20219;-67
2022/03/11 14:23:20;;;;;;;10.83;4.10;;;;;;;;;;5044296;28;20207;-67
2022/03/11 14:25:48;;;;;;;8.73;3.90;;;;;;;;;;5043790;28;20186;-67
2022/03/11 14:28:17;;;;;;;6.97;3.33;;;;;;;;;;5044184;28;20274;-67
2022/03/11 14:30:44;;;;;;;8.00;3.60;;;;;;;;;;5043527;28;20241;-67
2022/03/11 14:33:15;;;;;;;9.90;3.53;;;;;;;;;;5045983;28;20673;-67
2022/03/11 14:35:42;;;;;;;10.50;3.90;;;;;;;;;;5048967;28;20222;-67
2022/03/11 14:38:09;;;;;;;7.83;3.50;;;;;;;;;;5049492;28;20187;-67
2022/03/11 14:40:35;;;;;;;7.90;3.43;;;;;;;;;;5050848;28;20755;-67
2022/03/11 14:43:02;;;;;;;6.70;3.07;;;;;;;;;;5048961;28;20211;-67
2022/03/11 14:45:29;;;;;;;9.40;3.70;;;;;;;;;;5050779;28;20199;-67
2022/03/11 14:47:56;;;;;;;5.80;3.10;;;;;;;;;;5049841;28;20187;-67
2022/03/11 14:50:41;;;;;;;5.87;3.73;;;;;;;;;;5047195;28;20984;-67
2022/03/11 14:53:09;;;;;;;7.63;3.67;;;;;;;;;;5029397;28;20743;-68
2022/03/11 14:55:36;;;;;;;9.77;3.93;;;;;;;;;;5030931;28;20190;-68
2022/03/11 14:58:07;;;;;;;7.47;3.47;;;;;;;;;;5030855;28;20648;-68
2022/03/11 15:00:34;;;;;;;8.07;4.03;;;;;;;;;;5029262;28;20187;-67
2022/03/11 15:03:05;;;;;;;6.57;3.07;;;;;;;;;;5050367;28;20219;-67
2022/03/11 15:05:36;;;;;;;7.77;3.70;;;;;;;;;;5033558;28;20287;-65
2022/03/11 15:08:03;;;;;;;6.37;3.83;;;;;;;;;;5029670;28;20524;-66
2022/03/11 15:10:29;;;;;;;5.43;3.63;;;;;;;;;;5030332;28;20199;-66
2022/03/11 15:12:56;;;;;;;9.47;3.93;;;;;;;;;;5029045;28;20194;-68
2022/03/11 15:15:23;;;;;;;15.07;4.43;;;;;;;;;;5029793;28;20207;-67
2022/03/11 15:17:50;;;;;;;9.97;3.83;;;;;;;;;;5030462;28;20278;-67
2022/03/11 15:20:17;;;;;;;10.87;4.30;;;;;;;;;;5030161;28;20554;-67